»·PEaware :: NAX100 KLAS-KEKO

NAX100 :: KLAS-KEKO

FLIGHT INFORMATION

Flight Status: Arrived
Operator:
Norwegian Air Shuttle
More flights by this operator :: More flights under this callsign
Pilot: Anders S. (12537)
Aircraft: BOEING 737-800
(B738)
More flights by this aircraft type
Origin: KLAS McCarran Intl
United States
Destination: KEKO Elko Regl
United States
More flights between these airports :: More routes between these airports
Route: +SHEAD1 KENNO TEZUM BAM
File this flight plan on PilotEdge
Remarks: callsignal Nor Shuttle
Altitude:
(Current/Filed)
34,000ft
Speed:
(Current/Filed)
450kts
Departed: 12-Jun-18 01:51 PM
Arrived: 12-Jun-18 02:56 PM
Distance/Time
Traveled:
286nm/1:04
Distance/Time
To Go:
Arrived

Flight Plot

Page will automatically refresh every two minutes.

Flight plan parsing failed; only flown route is shown


Map Options




Map Legend


Flown Route
Filed Route
Departure Airport
Arrival Airport
Navaid (VOR, NDB)
Fix

Horizontal Profiles

Position Reports

Time Latitude Longitude Heading Altitude Ground
Speed
12-Jun-18 13:26 36.082676 -115.152159 40 2191ft 0kts
12-Jun-18 13:27 36.082676 -115.152159 40 2191ft 0kts
12-Jun-18 13:28 36.082676 -115.152159 40 2191ft 0kts
12-Jun-18 13:29 36.082676 -115.152159 40 2191ft 0kts
12-Jun-18 13:30 36.082676 -115.152159 40 2191ft 0kts
12-Jun-18 13:31 36.082676 -115.152159 40 2191ft 0kts
12-Jun-18 13:32 36.082676 -115.152159 40 2191ft 0kts
12-Jun-18 13:33 36.082425 -115.152422 40 2191ft 2kts
12-Jun-18 13:34 36.082315 -115.152537 39 2191ft 0kts
12-Jun-18 13:35 36.082317 -115.152536 39 2191ft 0kts
12-Jun-18 13:36 36.082325 -115.152527 39 2191ft 0kts
12-Jun-18 13:37 36.082333 -115.152519 39 2191ft 0kts
12-Jun-18 13:38 36.082341 -115.152510 39 2191ft 0kts
12-Jun-18 13:39 36.082350 -115.152501 39 2191ft 0kts
12-Jun-18 13:40 36.082358 -115.152493 39 2191ft 0kts
12-Jun-18 13:41 36.082367 -115.152483 39 2191ft 0kts
12-Jun-18 13:42 36.080003 -115.151342 158 2191ft 22kts
12-Jun-18 13:43 36.077836 -115.148118 89 2191ft 9kts
12-Jun-18 13:44 36.077584 -115.143196 93 2191ft 21kts
12-Jun-18 13:45 36.077548 -115.137391 89 2191ft 13kts
12-Jun-18 13:46 36.077577 -115.130645 89 2191ft 20kts
12-Jun-18 13:47 36.077606 -115.124700 89 2191ft 13kts
12-Jun-18 13:48 36.077196 -115.121405 164 2191ft 0kts
12-Jun-18 13:49 36.076607 -115.121536 233 2191ft 13kts
12-Jun-18 13:50 36.076397 -115.122512 266 2191ft 0kts
12-Jun-18 13:51 36.076420 -115.139772 269 2191ft 147kts
12-Jun-18 13:52 36.074580 -115.211291 266 3075ft 258kts
12-Jun-18 13:53 36.069601 -115.297575 265 5667ft 279kts
12-Jun-18 13:54 36.018608 -115.354572 170 7226ft 283kts
12-Jun-18 13:55 35.946007 -115.374122 202 9194ft 270kts
12-Jun-18 13:56 35.888034 -115.433695 258 10155ft 294kts
12-Jun-18 13:57 35.888565 -115.543216 271 10999ft 352kts
12-Jun-18 13:58 35.890888 -115.664054 271 11005ft 359kts
12-Jun-18 13:59 35.892940 -115.786646 272 13159ft 365kts
12-Jun-18 14:00 35.894989 -115.912778 272 15941ft 371kts
12-Jun-18 14:01 35.939952 -116.021835 317 18465ft 370kts
12-Jun-18 14:02 36.013785 -116.106715 315 19095ft 364kts
12-Jun-18 14:03 36.087898 -116.191919 315 19767ft 363kts
12-Jun-18 14:04 36.157197 -116.271879 315 21822ft 374kts
12-Jun-18 14:05 36.234105 -116.361061 314 22980ft 380kts
12-Jun-18 14:06 36.311425 -116.450731 315 23132ft 384kts
12-Jun-18 14:07 36.389506 -116.541839 312 24402ft 394kts
12-Jun-18 14:08 36.469412 -116.635244 312 25519ft 397kts
12-Jun-18 14:09 36.550098 -116.729968 314 26543ft 399kts
12-Jun-18 14:10 36.642105 -116.809350 325 27529ft 406kts
12-Jun-18 14:11 36.734069 -116.877371 324 28450ft 406kts
12-Jun-18 14:12 36.831715 -116.951334 324 29244ft 409kts
12-Jun-18 14:13 36.928818 -117.025421 324 29885ft 413kts
12-Jun-18 14:14 37.028974 -117.102390 321 29970ft 433kts
12-Jun-18 14:15 37.131500 -117.180847 321 30786ft 432kts
12-Jun-18 14:16 37.234029 -117.259853 322 31530ft 432kts
12-Jun-18 14:17 37.332535 -117.327802 330 32436ft 430kts
12-Jun-18 14:18 37.445390 -117.377203 334 32954ft 433kts
12-Jun-18 14:19 37.557440 -117.426625 333 33339ft 434kts
12-Jun-18 14:20 37.673108 -117.466172 355 34236ft 433kts
12-Jun-18 14:21 37.794171 -117.446235 0 34006ft 450kts
12-Jun-18 14:22 37.918407 -117.423787 359 33932ft 453kts
12-Jun-18 14:23 38.043554 -117.400931 359 33922ft 454kts
12-Jun-18 14:24 38.168820 -117.378036 359 33933ft 456kts
12-Jun-18 14:25 38.294253 -117.354978 359 33932ft 456kts
12-Jun-18 14:26 38.420111 -117.331789 359 33926ft 455kts
12-Jun-18 14:27 38.543751 -117.308951 358 33927ft 457kts
12-Jun-18 14:28 38.671638 -117.285199 358 33924ft 461kts
12-Jun-18 14:29 38.799157 -117.261442 358 33913ft 463kts
12-Jun-18 14:30 38.926959 -117.237550 357 33906ft 466kts
12-Jun-18 14:31 39.055874 -117.213359 357 33902ft 470kts
12-Jun-18 14:32 39.184864 -117.189033 357 33902ft 470kts
12-Jun-18 14:33 39.314550 -117.164522 357 33901ft 472kts
12-Jun-18 14:34 39.444385 -117.139870 357 33903ft 472kts
12-Jun-18 14:35 39.574772 -117.115041 357 33896ft 472kts
12-Jun-18 14:36 39.702172 -117.090622 357 32388ft 459kts
12-Jun-18 14:37 39.827484 -117.066594 358 30605ft 452kts
12-Jun-18 14:38 39.948561 -117.043319 358 28980ft 442kts
12-Jun-18 14:39 40.069078 -117.020058 0 27341ft 431kts
12-Jun-18 14:40 40.185708 -116.997558 0 25786ft 417kts
12-Jun-18 14:41 40.280898 -116.979016 1 24367ft 410kts
12-Jun-18 14:42 40.389030 -116.957992 2 22692ft 371kts
12-Jun-18 14:43 40.517036 -116.931933 12 19402ft 437kts
12-Jun-18 14:44 40.590292 -116.815685 75 16985ft 414kts
12-Jun-18 14:45 40.619606 -116.664571 75 14832ft 426kts
12-Jun-18 14:46 40.648249 -116.517011 75 12968ft 383kts
12-Jun-18 14:47 40.671540 -116.396327 75 12111ft 306kts
12-Jun-18 14:48 40.691063 -116.294467 75 11239ft 266kts
12-Jun-18 14:49 40.707614 -116.207794 76 10548ft 235kts
12-Jun-18 14:50 40.721306 -116.136493 74 10149ft 241kts
12-Jun-18 14:51 40.744627 -116.055017 67 8899ft 234kts
12-Jun-18 14:52 40.767440 -115.979013 68 7786ft 207kts
12-Jun-18 14:53 40.788223 -115.909544 68 6875ft 195kts
12-Jun-18 14:54 40.807009 -115.846458 68 5902ft 182kts
12-Jun-18 14:55 40.823670 -115.789764 70 5150ft 106kts
12-Jun-18 14:56 40.827642 -115.780438 254 5150ft 7kts
12-Jun-18 14:57 40.828378 -115.782172 352 5150ft 2kts
12-Jun-18 14:58 40.828550 -115.782130 24 5150ft 0kts
12-Jun-18 14:59 40.828550 -115.782130 24 5150ft 0kts
12-Jun-18 15:00 40.828550 -115.782130 24 5150ft 0kts
12-Jun-18 15:01 40.828550 -115.782130 24 5150ft 0kts
12-Jun-18 15:02 40.828550 -115.782130 24 5150ft 0kts

Navigation Log

Ident Type
Flight plan parsing failed, navigation log unavailable